sensor_id;sensor_type;location;lat;lon;timestamp;pressure;altitude;pressure_sealevel;temperature;humidity
54592;BME280;40488;48.558;18.150;2023-05-03T00:00:07;100018.00;;;13.62;89.72
54592;BME280;40488;48.558;18.150;2023-05-03T00:02:36;100012.00;;;13.62;89.64
54592;BME280;40488;48.558;18.150;2023-05-03T00:05:09;100018.88;;;13.60;89.25
54592;BME280;40488;48.558;18.150;2023-05-03T00:07:41;100019.72;;;13.59;89.48
54592;BME280;40488;48.558;18.150;2023-05-03T00:10:12;100008.66;;;13.54;89.79
54592;BME280;40488;48.558;18.150;2023-05-03T00:12:43;100017.16;;;13.56;89.62
54592;BME280;40488;48.558;18.150;2023-05-03T00:15:12;100018.06;;;13.55;89.45
54592;BME280;40488;48.558;18.150;2023-05-03T00:17:41;100017.22;;;13.53;89.66
54592;BME280;40488;48.558;18.150;2023-05-03T00:20:11;100010.38;;;13.52;89.65
54592;BME280;40488;48.558;18.150;2023-05-03T00:22:41;100016.34;;;13.54;89.91
54592;BME280;40488;48.558;18.150;2023-05-03T00:25:10;100010.34;;;13.55;89.63
54592;BME280;40488;48.558;18.150;2023-05-03T00:27:39;100012.94;;;13.53;89.83
54592;BME280;40488;48.558;18.150;2023-05-03T00:30:08;100004.41;;;13.53;89.73
54592;BME280;40488;48.558;18.150;2023-05-03T00:32:38;100007.00;;;13.48;90.05
54592;BME280;40488;48.558;18.150;2023-05-03T00:35:07;99999.34;;;13.43;89.90
54592;BME280;40488;48.558;18.150;2023-05-03T00:37:37;100001.84;;;13.50;90.17
54592;BME280;40488;48.558;18.150;2023-05-03T00:40:07;100001.78;;;13.56;90.06
54592;BME280;40488;48.558;18.150;2023-05-03T00:42:37;100003.50;;;13.57;90.00
54592;BME280;40488;48.558;18.150;2023-05-03T00:45:06;100008.66;;;13.54;90.33
54592;BME280;40488;48.558;18.150;2023-05-03T00:47:35;100009.50;;;13.51;90.36
54592;BME280;40488;48.558;18.150;2023-05-03T00:50:06;100016.34;;;13.54;90.02
54592;BME280;40488;48.558;18.150;2023-05-03T00:52:39;99991.66;;;13.43;90.38
54592;BME280;40488;48.558;18.150;2023-05-03T00:55:09;100005.25;;;13.49;90.45
54592;BME280;40488;48.558;18.150;2023-05-03T00:57:39;100006.13;;;13.46;90.05
54592;BME280;40488;48.558;18.150;2023-05-03T01:00:09;100005.34;;;13.39;90.45
54592;BME280;40488;48.558;18.150;2023-05-03T01:02:40;99996.78;;;13.40;90.16
54592;BME280;40488;48.558;18.150;2023-05-03T01:05:09;99989.94;;;13.39;90.52
54592;BME280;40488;48.558;18.150;2023-05-03T01:07:55;99989.94;;;13.39;90.37
54592;BME280;40488;48.558;18.150;2023-05-03T01:10:34;99988.25;;;13.38;90.72
54592;BME280;40488;48.558;18.150;2023-05-03T01:13:13;99977.16;;;13.35;90.81
54592;BME280;40488;48.558;18.150;2023-05-03T01:15:50;99976.38;;;13.28;90.78
54592;BME280;40488;48.558;18.150;2023-05-03T01:18:25;99978.09;;;13.26;90.82
54592;BME280;40488;48.558;18.150;2023-05-03T01:20:59;99981.50;;;13.22;91.12
54592;BME280;40488;48.558;18.150;2023-05-03T01:23:33;99986.66;;;13.21;90.78
54592;BME280;40488;48.558;18.150;2023-05-03T01:26:19;99985.81;;;13.22;91.18
54592;BME280;40488;48.558;18.150;2023-05-03T01:28:49;99984.97;;;13.18;91.13
54592;BME280;40488;48.558;18.150;2023-05-03T01:31:21;99985.84;;;13.19;91.13
54592;BME280;40488;48.558;18.150;2023-05-03T01:34:12;99994.34;;;13.21;90.94
54592;BME280;40488;48.558;18.150;2023-05-03T01:36:48;99983.25;;;13.17;91.09
54592;BME280;40488;48.558;18.150;2023-05-03T01:39:21;99985.00;;;13.14;90.80
54592;BME280;40488;48.558;18.150;2023-05-03T01:41:53;99984.19;;;13.04;90.94
54592;BME280;40488;48.558;18.150;2023-05-03T01:44:23;99983.31;;;13.11;91.23
54592;BME280;40488;48.558;18.150;2023-05-03T01:46:53;99980.75;;;13.11;91.13
54592;BME280;40488;48.558;18.150;2023-05-03T01:49:24;99974.78;;;13.09;91.30
54592;BME280;40488;48.558;18.150;2023-05-03T01:51:54;99967.06;;;13.14;91.31
54592;BME280;40488;48.558;18.150;2023-05-03T01:54:23;99950.81;;;13.13;91.25
54592;BME280;40488;48.558;18.150;2023-05-03T01:56:53;99955.09;;;13.16;91.56
54592;BME280;40488;48.558;18.150;2023-05-03T01:59:23;99955.06;;;13.17;91.48
54592;BME280;40488;48.558;18.150;2023-05-03T02:01:51;99962.78;;;13.14;91.16
54592;BME280;40488;48.558;18.150;2023-05-03T02:04:20;99950.88;;;13.09;91.25
54592;BME280;40488;48.558;18.150;2023-05-03T02:06:51;99961.09;;;13.12;91.57
54592;BME280;40488;48.558;18.150;2023-05-03T02:09:20;99961.97;;;13.12;91.45
54592;BME280;40488;48.558;18.150;2023-05-03T02:11:48;99966.19;;;13.16;91.47
54592;BME280;40488;48.558;18.150;2023-05-03T02:14:19;99962.75;;;13.20;91.22
54592;BME280;40488;48.558;18.150;2023-05-03T02:16:48;99967.03;;;13.18;91.38
54592;BME280;40488;48.558;18.150;2023-05-03T02:19:18;99966.19;;;13.16;91.29
54592;BME280;40488;48.558;18.150;2023-05-03T02:21:47;99961.06;;;13.19;91.56
54592;BME280;40488;48.558;18.150;2023-05-03T02:24:15;99965.31;;;13.22;91.36
54592;BME280;40488;48.558;18.150;2023-05-03T02:26:48;99966.13;;;13.22;91.20
54592;BME280;40488;48.558;18.150;2023-05-03T02:29:18;99967.84;;;13.23;91.11
54592;BME280;40488;48.558;18.150;2023-05-03T02:31:47;99962.66;;;13.29;91.14
54592;BME280;40488;48.558;18.150;2023-05-03T02:34:17;99962.66;;;13.29;91.12
54592;BME280;40488;48.558;18.150;2023-05-03T02:36:47;99973.84;;;13.24;91.30
54592;BME280;40488;48.558;18.150;2023-05-03T02:39:16;99957.63;;;13.20;91.30
54592;BME280;40488;48.558;18.150;2023-05-03T02:41:45;99962.75;;;13.17;91.26
54592;BME280;40488;48.558;18.150;2023-05-03T02:44:14;99967.03;;;13.21;91.33
54592;BME280;40488;48.558;18.150;2023-05-03T02:46:44;99966.13;;;13.25;91.26
54592;BME280;40488;48.558;18.150;2023-05-03T02:49:15;99961.84;;;13.27;91.29
54592;BME280;40488;48.558;18.150;2023-05-03T02:51:44;99969.53;;;13.27;91.08
54592;BME280;40488;48.558;18.150;2023-05-03T02:54:13;99969.56;;;13.24;91.09
54592;BME280;40488;48.558;18.150;2023-05-03T02:56:42;99967.84;;;13.23;90.96
54592;BME280;40488;48.558;18.150;2023-05-03T02:59:11;99976.44;;;13.19;90.82
54592;BME280;40488;48.558;18.150;2023-05-03T03:01:40;99973.88;;;13.16;90.87
54592;BME280;40488;48.558;18.150;2023-05-03T03:04:12;99973.00;;;13.17;90.83
54592;BME280;40488;48.558;18.150;2023-05-03T03:06:42;99977.31;;;13.17;90.93
54592;BME280;40488;48.558;18.150;2023-05-03T03:09:11;99980.75;;;13.11;90.76
54592;BME280;40488;48.558;18.150;2023-05-03T03:11:40;99979.88;;;13.11;91.14
54592;BME280;40488;48.558;18.150;2023-05-03T03:14:09;99983.28;;;13.05;90.94
54592;BME280;40488;48.558;18.150;2023-05-03T03:16:38;99985.03;;;13.03;91.23
54592;BME280;40488;48.558;18.150;2023-05-03T03:19:07;99985.03;;;13.03;91.41
54592;BME280;40488;48.558;18.150;2023-05-03T03:21:38;99983.34;;;13.02;91.51
54592;BME280;40488;48.558;18.150;2023-05-03T03:24:08;99985.06;;;13.00;91.46
54592;BME280;40488;48.558;18.150;2023-05-03T03:26:38;99988.47;;;13.02;91.76
54592;BME280;40488;48.558;18.150;2023-05-03T03:29:07;99987.59;;;13.05;91.92
54592;BME280;40488;48.558;18.150;2023-05-03T03:31:40;99995.28;;;13.09;91.92
54592;BME280;40488;48.558;18.150;2023-05-03T03:34:10;99996.16;;;13.07;91.72
54592;BME280;40488;48.558;18.150;2023-05-03T03:36:41;99990.19;;;13.00;91.81
54592;BME280;40488;48.558;18.150;2023-05-03T03:39:10;99991.06;;;12.98;92.14
54592;BME280;40488;48.558;18.150;2023-05-03T03:41:40;99996.16;;;12.99;92.00
54592;BME280;40488;48.558;18.150;2023-05-03T03:44:10;100005.53;;;13.03;92.10
54592;BME280;40488;48.558;18.150;2023-05-03T03:46:39;100010.69;;;13.00;92.23
54592;BME280;40488;48.558;18.150;2023-05-03T03:49:08;99998.69;;;13.01;92.42
54592;BME280;40488;48.558;18.150;2023-05-03T03:51:37;100003.81;;;13.04;92.51
54592;BME280;40488;48.558;18.150;2023-05-03T03:54:07;100005.53;;;13.06;92.48
54592;BME280;40488;48.558;18.150;2023-05-03T03:56:42;100007.25;;;13.06;92.47
54592;BME280;40488;48.558;18.150;2023-05-03T03:59:11;100008.91;;;13.05;92.31
54592;BME280;40488;48.558;18.150;2023-05-03T04:01:40;100013.22;;;13.06;92.62
54592;BME280;40488;48.558;18.150;2023-05-03T04:04:10;100012.38;;;13.07;92.53
54592;BME280;40488;48.558;18.150;2023-05-03T04:06:39;100014.09;;;13.07;92.38
54592;BME280;40488;48.558;18.150;2023-05-03T04:09:13;100015.78;;;13.08;92.34
54592;BME280;40488;48.558;18.150;2023-05-03T04:11:44;100022.63;;;13.07;92.33
54592;BME280;40488;48.558;18.150;2023-05-03T04:14:13;100020.06;;;13.09;92.33
54592;BME280;40488;48.558;18.150;2023-05-03T04:16:42;100026.91;;;13.10;92.23
54592;BME280;40488;48.558;18.150;2023-05-03T04:19:12;100018.34;;;13.08;92.10
54592;BME280;40488;48.558;18.150;2023-05-03T04:21:41;100020.91;;;13.05;92.11
54592;BME280;40488;48.558;18.150;2023-05-03T04:24:15;100030.31;;;13.04;91.98
54592;BME280;40488;48.558;18.150;2023-05-03T04:26:44;100025.19;;;13.03;92.30
54592;BME280;40488;48.558;18.150;2023-05-03T04:29:20;100027.75;;;13.06;92.01
54592;BME280;40488;48.558;18.150;2023-05-03T04:31:49;100023.47;;;13.02;92.29
54592;BME280;40488;48.558;18.150;2023-05-03T04:34:19;100029.44;;;13.08;92.15
54592;BME280;40488;48.558;18.150;2023-05-03T04:36:51;100032.84;;;13.10;92.16
54592;BME280;40488;48.558;18.150;2023-05-03T04:39:23;100035.41;;;13.13;92.42
54592;BME280;40488;48.558;18.150;2023-05-03T04:41:52;100036.28;;;13.12;92.32
54592;BME280;40488;48.558;18.150;2023-05-03T04:44:23;100039.69;;;13.14;92.42
54592;BME280;40488;48.558;18.150;2023-05-03T04:46:53;100043.09;;;13.10;92.10
54592;BME280;40488;48.558;18.150;2023-05-03T04:49:25;100043.13;;;13.07;92.16
54592;BME280;40488;48.558;18.150;2023-05-03T04:51:54;100043.09;;;13.10;91.96
54592;BME280;40488;48.558;18.150;2023-05-03T04:54:26;100042.25;;;13.08;91.80
54592;BME280;40488;48.558;18.150;2023-05-03T04:56:55;100049.91;;;13.05;91.76
54592;BME280;40488;48.558;18.150;2023-05-03T04:59:24;100048.25;;;13.04;91.96
54592;BME280;40488;48.558;18.150;2023-05-03T05:01:53;100044.84;;;13.02;91.70
54592;BME280;40488;48.558;18.150;2023-05-03T05:04:24;100047.34;;;13.05;91.76
54592;BME280;40488;48.558;18.150;2023-05-03T05:06:53;100057.63;;;13.04;91.67
54592;BME280;40488;48.558;18.150;2023-05-03T05:09:28;100054.22;;;13.02;91.96
54592;BME280;40488;48.558;18.150;2023-05-03T05:12:01;100054.22;;;13.05;91.98
54592;BME280;40488;48.558;18.150;2023-05-03T05:14:35;100058.50;;;13.07;91.81
54592;BME280;40488;48.558;18.150;2023-05-03T05:17:07;100061.06;;;13.06;91.82
54592;BME280;40488;48.558;18.150;2023-05-03T05:19:36;100061.91;;;13.03;92.00
54592;BME280;40488;48.558;18.150;2023-05-03T05:22:05;100061.91;;;13.02;91.93
54592;BME280;40488;48.558;18.150;2023-05-03T05:24:44;100065.34;;;12.99;91.75
54592;BME280;40488;48.558;18.150;2023-05-03T05:27:15;100065.34;;;12.99;91.76
54592;BME280;40488;48.558;18.150;2023-05-03T05:29:44;100067.03;;;13.05;91.94
54592;BME280;40488;48.558;18.150;2023-05-03T05:32:14;100066.19;;;13.06;91.62
54592;BME280;40488;48.558;18.150;2023-05-03T05:34:43;100046.56;;;12.94;91.48
54592;BME280;40488;48.558;18.150;2023-05-03T05:37:20;100067.88;;;13.13;91.47
54592;BME280;40488;48.558;18.150;2023-05-03T05:39:52;100067.00;;;13.15;91.65
54592;BME280;40488;48.558;18.150;2023-05-03T05:42:24;100065.28;;;13.17;91.49
54592;BME280;40488;48.558;18.150;2023-05-03T05:44:53;100060.19;;;13.14;91.55
54592;BME280;40488;48.558;18.150;2023-05-03T05:47:24;100062.75;;;13.08;91.38
54592;BME280;40488;48.558;18.150;2023-05-03T05:49:56;100066.19;;;13.09;91.16
54592;BME280;40488;48.558;18.150;2023-05-03T05:52:25;100068.75;;;13.07;91.58
54592;BME280;40488;48.558;18.150;2023-05-03T05:54:56;100070.44;;;13.11;91.30
54592;BME280;40488;48.558;18.150;2023-05-03T05:57:25;100065.31;;;13.11;90.97
54592;BME280;40488;48.558;18.150;2023-05-03T05:59:54;100067.88;;;13.13;90.98
54592;BME280;40488;48.558;18.150;2023-05-03T06:02:24;100075.56;;;13.14;90.87
54592;BME280;40488;48.558;18.150;2023-05-03T06:04:54;100078.97;;;13.16;90.77
54592;BME280;40488;48.558;18.150;2023-05-03T06:07:23;100083.22;;;13.17;90.56
54592;BME280;40488;48.558;18.150;2023-05-03T06:09:53;100080.66;;;13.16;90.27
54592;BME280;40488;48.558;18.150;2023-05-03T06:12:24;100085.78;;;13.17;90.29
54592;BME280;40488;48.558;18.150;2023-05-03T06:14:53;100090.06;;;13.18;90.53
54592;BME280;40488;48.558;18.150;2023-05-03T06:17:30;100088.34;;;13.19;90.39
54592;BME280;40488;48.558;18.150;2023-05-03T06:19:59;100088.31;;;13.25;90.20
54592;BME280;40488;48.558;18.150;2023-05-03T06:22:28;100086.63;;;13.24;90.37
54592;BME280;40488;48.558;18.150;2023-05-03T06:24:57;100093.44;;;13.25;90.03
54592;BME280;40488;48.558;18.150;2023-05-03T06:27:28;100096.84;;;13.27;89.85
54592;BME280;40488;48.558;18.150;2023-05-03T06:29:57;100093.44;;;13.25;89.83
54592;BME280;40488;48.558;18.150;2023-05-03T06:32:25;100096.03;;;13.23;89.89
54592;BME280;40488;48.558;18.150;2023-05-03T06:34:54;100106.28;;;13.23;89.57
54592;BME280;40488;48.558;18.150;2023-05-03T06:37:26;100102.88;;;13.21;89.82
54592;BME280;40488;48.558;18.150;2023-05-03T06:39:54;100103.72;;;13.20;89.44
54592;BME280;40488;48.558;18.150;2023-05-03T06:42:23;100107.13;;;13.21;89.39
54592;BME280;40488;48.558;18.150;2023-05-03T06:45:06;100115.69;;;13.21;89.62
54592;BME280;40488;48.558;18.150;2023-05-03T06:47:37;100110.56;;;13.21;89.45
54592;BME280;40488;48.558;18.150;2023-05-03T06:50:09;100113.97;;;13.22;89.61
54592;BME280;40488;48.558;18.150;2023-05-03T06:52:38;100114.84;;;13.19;89.24
54592;BME280;40488;48.558;18.150;2023-05-03T06:55:08;100114.84;;;13.16;89.42
54592;BME280;40488;48.558;18.150;2023-05-03T06:57:37;100114.84;;;13.16;89.24
54592;BME280;40488;48.558;18.150;2023-05-03T07:00:11;100119.09;;;13.19;89.31
54592;BME280;40488;48.558;18.150;2023-05-03T07:02:41;100116.56;;;13.14;89.34
54592;BME280;40488;48.558;18.150;2023-05-03T07:05:10;100120.84;;;13.14;88.82
54592;BME280;40488;48.558;18.150;2023-05-03T07:07:38;100120.84;;;13.17;88.77
54592;BME280;40488;48.558;18.150;2023-05-03T07:10:07;100131.91;;;13.20;89.15
54592;BME280;40488;48.558;18.150;2023-05-03T07:12:36;100132.75;;;13.22;88.96
54592;BME280;40488;48.558;18.150;2023-05-03T07:15:05;100129.34;;;13.20;88.43
54592;BME280;40488;48.558;18.150;2023-05-03T07:17:36;100136.19;;;13.15;88.21
54592;BME280;40488;48.558;18.150;2023-05-03T07:20:06;100131.94;;;13.14;88.35
54592;BME280;40488;48.558;18.150;2023-05-03T07:22:36;100140.47;;;13.16;88.07
54592;BME280;40488;48.558;18.150;2023-05-03T07:25:05;100140.47;;;13.13;88.20
54592;BME280;40488;48.558;18.150;2023-05-03T07:27:34;100145.59;;;13.19;88.20
54592;BME280;40488;48.558;18.150;2023-05-03T07:30:03;100150.72;;;13.19;88.26
54592;BME280;40488;48.558;18.150;2023-05-03T07:32:33;100152.44;;;13.11;88.15
54592;BME280;40488;48.558;18.150;2023-05-03T07:35:03;100152.44;;;13.08;88.18
54592;BME280;40488;48.558;18.150;2023-05-03T07:37:33;100155.88;;;13.10;88.25
54592;BME280;40488;48.558;18.150;2023-05-03T07:40:04;100157.56;;;13.05;88.13
54592;BME280;40488;48.558;18.150;2023-05-03T07:42:34;100152.41;;;13.05;88.28
54592;BME280;40488;48.558;18.150;2023-05-03T07:45:04;100161.84;;;13.08;88.37
54592;BME280;40488;48.558;18.150;2023-05-03T07:47:33;100158.47;;;13.07;88.32
54592;BME280;40488;48.558;18.150;2023-05-03T07:50:06;100160.13;;;13.04;88.36
54592;BME280;40488;48.558;18.150;2023-05-03T07:52:36;100161.00;;;13.01;88.28
54592;BME280;40488;48.558;18.150;2023-05-03T07:55:06;100161.88;;;13.00;88.16
54592;BME280;40488;48.558;18.150;2023-05-03T07:57:35;100167.00;;;12.97;88.39
54592;BME280;40488;48.558;18.150;2023-05-03T08:00:04;100169.56;;;12.94;88.35
54592;BME280;40488;48.558;18.150;2023-05-03T08:02:40;100161.88;;;12.97;88.36
54592;BME280;40488;48.558;18.150;2023-05-03T08:05:11;100159.31;;;12.97;88.24
54592;BME280;40488;48.558;18.150;2023-05-03T08:07:41;100160.16;;;12.96;88.28
54592;BME280;40488;48.558;18.150;2023-05-03T08:10:10;100172.13;;;12.97;88.11
54592;BME280;40488;48.558;18.150;2023-05-03T08:12:40;100161.00;;;12.97;88.31
54592;BME280;40488;48.558;18.150;2023-05-03T08:15:09;100166.13;;;13.01;87.95
54592;BME280;40488;48.558;18.150;2023-05-03T08:17:41;100167.00;;;13.09;88.27
54592;BME280;40488;48.558;18.150;2023-05-03T08:20:14;100169.50;;;13.15;87.93
54592;BME280;40488;48.558;18.150;2023-05-03T08:22:43;100173.78;;;13.19;88.38
54592;BME280;40488;48.558;18.150;2023-05-03T08:25:13;100179.75;;;13.21;88.06
54592;BME280;40488;48.558;18.150;2023-05-03T08:27:43;100184.88;;;13.24;88.30
54592;BME280;40488;48.558;18.150;2023-05-03T08:30:12;100181.44;;;13.30;88.21
54592;BME280;40488;48.558;18.150;2023-05-03T08:32:41;100183.13;;;13.32;87.83
54592;BME280;40488;48.558;18.150;2023-05-03T08:35:10;100188.28;;;13.26;87.65
54592;BME280;40488;48.558;18.150;2023-05-03T08:37:43;100186.56;;;13.25;87.55
54592;BME280;40488;48.558;18.150;2023-05-03T08:40:12;100184.88;;;13.26;87.10
54592;BME280;40488;48.558;18.150;2023-05-03T08:42:42;100190.00;;;13.29;87.58
54592;BME280;40488;48.558;18.150;2023-05-03T08:45:13;100192.56;;;13.29;87.09
54592;BME280;40488;48.558;18.150;2023-05-03T08:47:43;100193.41;;;13.31;87.11
54592;BME280;40488;48.558;18.150;2023-05-03T08:50:14;100195.09;;;13.33;86.70
54592;BME280;40488;48.558;18.150;2023-05-03T08:52:45;100202.78;;;13.35;86.69
54592;BME280;40488;48.558;18.150;2023-05-03T08:55:14;100202.75;;;13.39;86.73
54592;BME280;40488;48.558;18.150;2023-05-03T08:57:43;100196.78;;;13.43;86.85
54592;BME280;40488;48.558;18.150;2023-05-03T09:00:12;100206.16;;;13.41;86.47
54592;BME280;40488;48.558;18.150;2023-05-03T09:02:42;100205.31;;;13.36;86.62
54592;BME280;40488;48.558;18.150;2023-05-03T09:05:29;100203.59;;;13.41;86.51
54592;BME280;40488;48.558;18.150;2023-05-03T09:08:05;100207.00;;;13.53;86.55
54592;BME280;40488;48.558;18.150;2023-05-03T09:10:37;100212.94;;;13.56;86.41
54592;BME280;40488;48.558;18.150;2023-05-03T09:13:07;100211.22;;;13.58;86.03
54592;BME280;40488;48.558;18.150;2023-05-03T09:15:36;100205.22;;;13.61;85.67
54592;BME280;40488;48.558;18.150;2023-05-03T09:18:13;100208.63;;;13.66;85.70
54592;BME280;40488;48.558;18.150;2023-05-03T09:20:45;100201.78;;;13.68;85.31
54592;BME280;40488;48.558;18.150;2023-05-03T09:23:29;100203.44;;;13.78;85.03
54592;BME280;40488;48.558;18.150;2023-05-03T09:25:58;100203.41;;;13.84;84.75
54592;BME280;40488;48.558;18.150;2023-05-03T09:28:27;100210.19;;;13.95;84.61
54592;BME280;40488;48.558;18.150;2023-05-03T09:31:07;100208.41;;;14.05;84.65
54592;BME280;40488;48.558;18.150;2023-05-03T09:33:39;100208.38;;;14.11;83.98
54592;BME280;40488;48.558;18.150;2023-05-03T09:36:08;100211.72;;;14.24;84.21
54592;BME280;40488;48.558;18.150;2023-05-03T09:38:39;100213.41;;;14.26;83.97
54592;BME280;40488;48.558;18.150;2023-05-03T09:41:08;100211.72;;;14.25;83.87
54592;BME280;40488;48.558;18.150;2023-05-03T09:43:47;100210.84;;;14.23;83.55
54592;BME280;40488;48.558;18.150;2023-05-03T09:46:17;100209.97;;;14.30;83.13
54592;BME280;40488;48.558;18.150;2023-05-03T09:48:47;100210.81;;;14.37;82.95
54592;BME280;40488;48.558;18.150;2023-05-03T09:51:16;100217.66;;;14.36;82.52
54592;BME280;40488;48.558;18.150;2023-05-03T09:53:48;100215.88;;;14.44;81.91
54592;BME280;40488;48.558;18.150;2023-05-03T09:56:17;100215.81;;;14.53;81.55
54592;BME280;40488;48.558;18.150;2023-05-03T09:58:49;100214.06;;;14.58;81.52
54592;BME280;40488;48.558;18.150;2023-05-03T10:01:18;100213.16;;;14.62;80.75
54592;BME280;40488;48.558;18.150;2023-05-03T10:03:50;100211.28;;;14.80;80.85
54592;BME280;40488;48.558;18.150;2023-05-03T10:06:23;100213.78;;;14.86;80.89
54592;BME280;40488;48.558;18.150;2023-05-03T10:09:00;100207.88;;;14.77;80.04
54592;BME280;40488;48.558;18.150;2023-05-03T10:11:34;100216.34;;;14.86;79.68
54592;BME280;40488;48.558;18.150;2023-05-03T10:14:04;100206.78;;;15.01;79.92
54592;BME280;40488;48.558;18.150;2023-05-03T10:16:36;100194.78;;;15.00;79.19
54592;BME280;40488;48.558;18.150;2023-05-03T10:19:10;100202.50;;;15.02;79.04
54592;BME280;40488;48.558;18.150;2023-05-03T10:21:50;100194.75;;;15.05;77.92
54592;BME280;40488;48.558;18.150;2023-05-03T10:24:24;100187.09;;;14.99;77.22
54592;BME280;40488;48.558;18.150;2023-05-03T10:26:55;100192.22;;;15.02;77.24
54592;BME280;40488;48.558;18.150;2023-05-03T10:32:28;100198.84;;;15.22;76.88
54592;BME280;40488;48.558;18.150;2023-05-03T10:34:59;100198.81;;;15.24;76.21
54592;BME280;40488;48.558;18.150;2023-05-03T10:37:33;100190.22;;;15.28;75.80
54592;BME280;40488;48.558;18.150;2023-05-03T10:40:08;100188.44;;;15.33;75.29
54592;BME280;40488;48.558;18.150;2023-05-03T10:42:42;100195.91;;;15.56;75.49
54592;BME280;40488;48.558;18.150;2023-05-03T10:45:21;100201.81;;;15.62;74.50
54592;BME280;40488;48.558;18.150;2023-05-03T10:50:43;100198.06;;;15.87;74.71
54592;BME280;40488;48.558;18.150;2023-05-03T10:53:34;100200.50;;;15.96;74.64
54592;BME280;40488;48.558;18.150;2023-05-03T10:56:06;100202.13;;;16.00;74.67
54592;BME280;40488;48.558;18.150;2023-05-03T10:58:37;100199.56;;;16.00;73.85
54592;BME280;40488;48.558;18.150;2023-05-03T11:01:11;100196.78;;;16.17;73.52
54592;BME280;40488;48.558;18.150;2023-05-03T11:03:47;100199.09;;;16.34;73.44
54592;BME280;40488;48.558;18.150;2023-05-03T11:06:31;100198.88;;;16.46;73.55
54592;BME280;40488;48.558;18.150;2023-05-03T11:09:02;100190.88;;;16.64;73.62
54592;BME280;40488;48.558;18.150;2023-05-03T11:11:35;100195.38;;;16.53;72.47
54592;BME280;40488;48.558;18.150;2023-05-03T11:14:07;100194.69;;;16.40;72.28
54592;BME280;40488;48.558;18.150;2023-05-03T11:16:35;100186.88;;;16.45;72.04
54592;BME280;40488;48.558;18.150;2023-05-03T11:19:08;100188.59;;;16.46;72.21
54592;BME280;40488;48.558;18.150;2023-05-03T11:21:36;100195.28;;;16.56;72.28
54592;BME280;40488;48.558;18.150;2023-05-03T11:24:06;100189.09;;;16.66;72.26
54592;BME280;40488;48.558;18.150;2023-05-03T11:26:36;100197.94;;;16.53;72.10
54592;BME280;40488;48.558;18.150;2023-05-03T11:29:08;100209.31;;;16.37;71.96
54592;BME280;40488;48.558;18.150;2023-05-03T11:31:38;100206.09;;;16.23;71.81
54592;BME280;40488;48.558;18.150;2023-05-03T11:34:10;100197.75;;;16.08;71.90
54592;BME280;40488;48.558;18.150;2023-05-03T11:36:40;100198.91;;;15.88;71.23
54592;BME280;40488;48.558;18.150;2023-05-03T11:39:12;100194.88;;;15.67;71.55
54592;BME280;40488;48.558;18.150;2023-05-03T11:42:00;100198.41;;;15.62;71.90
54592;BME280;40488;48.558;18.150;2023-05-03T11:44:31;100191.47;;;15.65;72.06
54592;BME280;40488;48.558;18.150;2023-05-03T11:47:00;100194.94;;;15.64;72.81
54592;BME280;40488;48.558;18.150;2023-05-03T11:49:30;100196.78;;;15.53;72.75
54592;BME280;40488;48.558;18.150;2023-05-03T11:51:59;100196.06;;;15.45;72.71
54592;BME280;40488;48.558;18.150;2023-05-03T11:54:29;100199.56;;;15.33;72.35
54592;BME280;40488;48.558;18.150;2023-05-03T11:57:11;100208.19;;;15.29;72.52
54592;BME280;40488;48.558;18.150;2023-05-03T11:59:41;100201.38;;;15.24;72.34
54592;BME280;40488;48.558;18.150;2023-05-03T12:02:12;100193.81;;;15.12;72.45
54592;BME280;40488;48.558;18.150;2023-05-03T12:04:42;100192.97;;;15.11;72.75
54592;BME280;40488;48.558;18.150;2023-05-03T12:07:30;100204.09;;;15.12;72.93
54592;BME280;40488;48.558;18.150;2023-05-03T12:10:12;100197.25;;;15.11;73.43
54592;BME280;40488;48.558;18.150;2023-05-03T12:12:54;100197.28;;;15.08;73.47
54592;BME280;40488;48.558;18.150;2023-05-03T12:15:31;100193.78;;;15.15;73.01
54592;BME280;40488;48.558;18.150;2023-05-03T12:18:02;100187.75;;;15.17;73.17
54592;BME280;40488;48.558;18.150;2023-05-03T12:20:32;100194.50;;;15.27;73.46
54592;BME280;40488;48.558;18.150;2023-05-03T12:23:06;100200.41;;;15.34;73.29
54592;BME280;40488;48.558;18.150;2023-05-03T12:25:37;100199.63;;;15.29;72.62
54592;BME280;40488;48.558;18.150;2023-05-03T12:28:12;100197.13;;;15.23;72.46
54592;BME280;40488;48.558;18.150;2023-05-03T12:30:44;100190.25;;;15.25;72.44
54592;BME280;40488;48.558;18.150;2023-05-03T12:33:13;100195.38;;;15.28;72.63
54592;BME280;40488;48.558;18.150;2023-05-03T12:35:49;100192.84;;;15.22;72.12
54592;BME280;40488;48.558;18.150;2023-05-03T12:38:21;100192.88;;;15.19;71.91
54592;BME280;40488;48.558;18.150;2023-05-03T12:40:51;100193.75;;;15.18;72.00
54592;BME280;40488;48.558;18.150;2023-05-03T12:43:23;100191.19;;;15.18;71.84
54592;BME280;40488;48.558;18.150;2023-05-03T12:45:52;100194.59;;;15.20;71.82
54592;BME280;40488;48.558;18.150;2023-05-03T12:48:40;100190.34;;;15.16;71.76
54592;BME280;40488;48.558;18.150;2023-05-03T12:51:13;100188.66;;;15.13;71.93
54592;BME280;40488;48.558;18.150;2023-05-03T12:53:46;100171.56;;;15.08;72.33
54592;BME280;40488;48.558;18.150;2023-05-03T12:56:21;100182.63;;;15.14;72.45
54592;BME280;40488;48.558;18.150;2023-05-03T12:58:53;100170.66;;;15.12;71.76
54592;BME280;40488;48.558;18.150;2023-05-03T13:01:25;100179.16;;;15.20;71.74
54592;BME280;40488;48.558;18.150;2023-05-03T13:03:58;100177.44;;;15.20;71.83
54592;BME280;40488;48.558;18.150;2023-05-03T13:06:30;100176.53;;;15.26;71.95
54592;BME280;40488;48.558;18.150;2023-05-03T13:09:08;100178.34;;;15.15;71.25